sensor_id;sensor_type;location;lat;lon;timestamp;P1;durP1;ratioP1;P2;durP2;ratioP2
64678;SDS011;51094;53.864;27.676;2023-02-23T00:01:50;4.75;;;4.65;;
64678;SDS011;51094;53.864;27.676;2023-02-23T00:04:17;5.18;;;5.07;;
64678;SDS011;51094;53.864;27.676;2023-02-23T00:06:44;5.25;;;5.15;;
64678;SDS011;51094;53.864;27.676;2023-02-23T00:09:11;5.78;;;5.57;;
64678;SDS011;51094;53.864;27.676;2023-02-23T00:11:48;5.72;;;5.53;;
64678;SDS011;51094;53.864;27.676;2023-02-23T00:14:16;6.07;;;5.88;;
64678;SDS011;51094;53.864;27.676;2023-02-23T00:16:42;6.90;;;6.60;;
64678;SDS011;51094;53.864;27.676;2023-02-23T00:19:12;5.90;;;5.70;;
64678;SDS011;51094;53.864;27.676;2023-02-23T00:21:40;6.13;;;5.93;;
64678;SDS011;51094;53.864;27.676;2023-02-23T00:24:08;5.15;;;5.05;;
64678;SDS011;51094;53.864;27.676;2023-02-23T00:26:37;5.35;;;5.25;;
64678;SDS011;51094;53.864;27.676;2023-02-23T00:29:06;5.43;;;5.30;;
64678;SDS011;51094;53.864;27.676;2023-02-23T00:31:34;5.73;;;5.53;;
64678;SDS011;51094;53.864;27.676;2023-02-23T00:34:04;5.18;;;5.07;;
64678;SDS011;51094;53.864;27.676;2023-02-23T00:36:32;5.53;;;5.43;;
64678;SDS011;51094;53.864;27.676;2023-02-23T00:39:00;5.57;;;5.38;;
64678;SDS011;51094;53.864;27.676;2023-02-23T00:41:44;5.68;;;5.47;;
64678;SDS011;51094;53.864;27.676;2023-02-23T00:44:12;5.47;;;5.28;;
64678;SDS011;51094;53.864;27.676;2023-02-23T00:46:40;5.72;;;5.60;;
64678;SDS011;51094;53.864;27.676;2023-02-23T00:49:09;5.88;;;5.68;;
64678;SDS011;51094;53.864;27.676;2023-02-23T00:51:39;5.82;;;5.63;;
64678;SDS011;51094;53.864;27.676;2023-02-23T00:54:06;5.75;;;5.55;;
64678;SDS011;51094;53.864;27.676;2023-02-23T00:56:34;6.07;;;5.88;;
64678;SDS011;51094;53.864;27.676;2023-02-23T00:59:00;5.55;;;5.38;;
64678;SDS011;51094;53.864;27.676;2023-02-23T01:01:27;5.32;;;5.20;;
64678;SDS011;51094;53.864;27.676;2023-02-23T01:03:54;5.30;;;5.20;;
64678;SDS011;51094;53.864;27.676;2023-02-23T01:06:22;5.20;;;5.10;;
64678;SDS011;51094;53.864;27.676;2023-02-23T01:08:50;5.00;;;4.80;;
64678;SDS011;51094;53.864;27.676;2023-02-23T01:11:23;5.05;;;4.95;;
64678;SDS011;51094;53.864;27.676;2023-02-23T01:13:57;5.63;;;5.43;;
64678;SDS011;51094;53.864;27.676;2023-02-23T01:16:27;6.10;;;5.90;;
64678;SDS011;51094;53.864;27.676;2023-02-23T01:18:57;5.75;;;5.55;;
64678;SDS011;51094;53.864;27.676;2023-02-23T01:21:26;6.50;;;6.30;;
64678;SDS011;51094;53.864;27.676;2023-02-23T01:23:55;5.50;;;5.30;;
64678;SDS011;51094;53.864;27.676;2023-02-23T01:26:26;5.78;;;5.57;;
64678;SDS011;51094;53.864;27.676;2023-02-23T01:28:56;5.68;;;5.53;;
64678;SDS011;51094;53.864;27.676;2023-02-23T01:31:26;5.70;;;5.50;;
64678;SDS011;51094;53.864;27.676;2023-02-23T01:33:57;6.10;;;5.90;;
64678;SDS011;51094;53.864;27.676;2023-02-23T01:36:28;5.03;;;4.85;;
64678;SDS011;51094;53.864;27.676;2023-02-23T01:38:59;5.72;;;5.53;;
64678;SDS011;51094;53.864;27.676;2023-02-23T01:41:27;5.18;;;5.07;;
64678;SDS011;51094;53.864;27.676;2023-02-23T01:46:27;6.50;;;6.30;;
64678;SDS011;51094;53.864;27.676;2023-02-23T01:48:57;6.18;;;5.97;;
64678;SDS011;51094;53.864;27.676;2023-02-23T01:51:26;5.60;;;5.50;;
64678;SDS011;51094;53.864;27.676;2023-02-23T01:53:59;5.35;;;5.22;;
64678;SDS011;51094;53.864;27.676;2023-02-23T01:56:33;6.20;;;6.00;;
64678;SDS011;51094;53.864;27.676;2023-02-23T01:59:09;5.72;;;5.53;;
64678;SDS011;51094;53.864;27.676;2023-02-23T02:01:38;5.82;;;5.63;;
64678;SDS011;51094;53.864;27.676;2023-02-23T02:04:06;6.05;;;5.85;;
64678;SDS011;51094;53.864;27.676;2023-02-23T02:06:35;6.47;;;6.28;;
64678;SDS011;51094;53.864;27.676;2023-02-23T02:09:04;6.65;;;6.45;;
64678;SDS011;51094;53.864;27.676;2023-02-23T02:11:35;7.20;;;7.00;;
64678;SDS011;51094;53.864;27.676;2023-02-23T02:17:02;8.75;;;8.45;;
64678;SDS011;51094;53.864;27.676;2023-02-23T02:28:12;7.22;;;7.03;;
64678;SDS011;51094;53.864;27.676;2023-02-23T02:31:13;6.13;;;5.93;;
64678;SDS011;51094;53.864;27.676;2023-02-23T02:42:28;5.40;;;5.30;;
64678;SDS011;51094;53.864;27.676;2023-02-23T02:47:47;5.95;;;5.75;;
64678;SDS011;51094;53.864;27.676;2023-02-23T02:53:13;5.80;;;5.60;;
64678;SDS011;51094;53.864;27.676;2023-02-23T02:55:46;5.80;;;5.70;;
64678;SDS011;51094;53.864;27.676;2023-02-23T02:58:14;5.75;;;5.55;;
64678;SDS011;51094;53.864;27.676;2023-02-23T03:00:44;5.18;;;5.07;;
64678;SDS011;51094;53.864;27.676;2023-02-23T03:03:37;5.60;;;5.45;;
64678;SDS011;51094;53.864;27.676;2023-02-23T03:06:29;5.80;;;5.60;;
64678;SDS011;51094;53.864;27.676;2023-02-23T03:09:40;5.53;;;5.35;;
64678;SDS011;51094;53.864;27.676;2023-02-23T03:12:39;5.35;;;5.25;;
64678;SDS011;51094;53.864;27.676;2023-02-23T03:15:37;5.22;;;5.13;;
64678;SDS011;51094;53.864;27.676;2023-02-23T03:21:32;5.13;;;5.03;;
64678;SDS011;51094;53.864;27.676;2023-02-23T03:24:40;5.32;;;5.22;;
64678;SDS011;51094;53.864;27.676;2023-02-23T03:30:20;5.45;;;5.35;;
64678;SDS011;51094;53.864;27.676;2023-02-23T03:33:16;5.30;;;5.20;;
64678;SDS011;51094;53.864;27.676;2023-02-23T03:36:10;5.15;;;5.05;;
64678;SDS011;51094;53.864;27.676;2023-02-23T03:39:04;5.68;;;5.57;;
64678;SDS011;51094;53.864;27.676;2023-02-23T03:42:13;4.95;;;4.82;;
64678;SDS011;51094;53.864;27.676;2023-02-23T03:45:05;4.95;;;4.85;;
64678;SDS011;51094;53.864;27.676;2023-02-23T03:47:54;5.50;;;5.30;;
64678;SDS011;51094;53.864;27.676;2023-02-23T03:50:48;5.35;;;5.25;;
64678;SDS011;51094;53.864;27.676;2023-02-23T03:53:42;5.00;;;4.90;;
64678;SDS011;51094;53.864;27.676;2023-02-23T03:56:32;4.90;;;4.80;;
64678;SDS011;51094;53.864;27.676;2023-02-23T03:59:24;5.65;;;5.45;;
64678;SDS011;51094;53.864;27.676;2023-02-23T04:02:13;5.22;;;5.13;;
64678;SDS011;51094;53.864;27.676;2023-02-23T04:05:04;5.70;;;5.50;;
64678;SDS011;51094;53.864;27.676;2023-02-23T04:07:53;5.47;;;5.38;;
64678;SDS011;51094;53.864;27.676;2023-02-23T04:10:45;5.32;;;5.22;;
64678;SDS011;51094;53.864;27.676;2023-02-23T04:13:35;5.65;;;5.45;;
64678;SDS011;51094;53.864;27.676;2023-02-23T04:16:06;5.65;;;5.45;;
64678;SDS011;51094;53.864;27.676;2023-02-23T04:18:35;5.93;;;5.72;;
64678;SDS011;51094;53.864;27.676;2023-02-23T04:21:04;5.68;;;5.47;;
64678;SDS011;51094;53.864;27.676;2023-02-23T04:23:32;6.30;;;6.10;;
64678;SDS011;51094;53.864;27.676;2023-02-23T04:26:00;5.78;;;5.57;;
64678;SDS011;51094;53.864;27.676;2023-02-23T04:28:27;6.00;;;5.80;;
64678;SDS011;51094;53.864;27.676;2023-02-23T04:30:54;5.53;;;5.32;;
64678;SDS011;51094;53.864;27.676;2023-02-23T04:33:21;5.13;;;5.03;;
64678;SDS011;51094;53.864;27.676;2023-02-23T04:35:51;6.20;;;6.00;;
64678;SDS011;51094;53.864;27.676;2023-02-23T04:38:21;6.07;;;5.88;;
64678;SDS011;51094;53.864;27.676;2023-02-23T04:40:48;5.55;;;5.45;;
64678;SDS011;51094;53.864;27.676;2023-02-23T04:43:15;5.82;;;5.63;;
64678;SDS011;51094;53.864;27.676;2023-02-23T04:45:43;6.13;;;5.93;;
64678;SDS011;51094;53.864;27.676;2023-02-23T04:48:10;6.40;;;6.20;;
64678;SDS011;51094;53.864;27.676;2023-02-23T04:50:37;7.22;;;7.03;;
64678;SDS011;51094;53.864;27.676;2023-02-23T04:53:05;7.18;;;6.97;;
64678;SDS011;51094;53.864;27.676;2023-02-23T04:55:32;6.35;;;6.15;;
64678;SDS011;51094;53.864;27.676;2023-02-23T04:57:59;6.20;;;6.00;;
64678;SDS011;51094;53.864;27.676;2023-02-23T05:00:27;7.07;;;6.88;;
64678;SDS011;51094;53.864;27.676;2023-02-23T05:02:55;7.00;;;6.80;;
64678;SDS011;51094;53.864;27.676;2023-02-23T05:05:23;7.20;;;7.00;;
64678;SDS011;51094;53.864;27.676;2023-02-23T05:07:49;6.78;;;6.57;;
64678;SDS011;51094;53.864;27.676;2023-02-23T05:10:16;6.63;;;6.43;;
64678;SDS011;51094;53.864;27.676;2023-02-23T05:12:43;6.82;;;6.63;;
64678;SDS011;51094;53.864;27.676;2023-02-23T05:15:10;6.90;;;6.70;;
64678;SDS011;51094;53.864;27.676;2023-02-23T05:17:37;7.03;;;6.82;;
64678;SDS011;51094;53.864;27.676;2023-02-23T05:20:07;7.53;;;7.32;;
64678;SDS011;51094;53.864;27.676;2023-02-23T05:22:35;6.63;;;6.43;;
64678;SDS011;51094;53.864;27.676;2023-02-23T05:25:03;7.80;;;7.60;;
64678;SDS011;51094;53.864;27.676;2023-02-23T05:27:31;7.75;;;7.45;;
64678;SDS011;51094;53.864;27.676;2023-02-23T05:29:58;7.68;;;7.38;;
64678;SDS011;51094;53.864;27.676;2023-02-23T05:32:26;7.72;;;7.53;;
64678;SDS011;51094;53.864;27.676;2023-02-23T05:34:54;8.60;;;8.30;;
64678;SDS011;51094;53.864;27.676;2023-02-23T05:37:20;8.68;;;8.38;;
64678;SDS011;51094;53.864;27.676;2023-02-23T05:39:47;9.65;;;9.35;;
64678;SDS011;51094;53.864;27.676;2023-02-23T05:42:14;15.00;;;14.40;;
64678;SDS011;51094;53.864;27.676;2023-02-23T05:44:41;12.73;;;12.23;;
64678;SDS011;51094;53.864;27.676;2023-02-23T05:47:08;16.42;;;15.73;;
64678;SDS011;51094;53.864;27.676;2023-02-23T05:49:36;16.05;;;15.35;;
64678;SDS011;51094;53.864;27.676;2023-02-23T05:52:03;13.45;;;12.95;;
64678;SDS011;51094;53.864;27.676;2023-02-23T05:54:31;13.65;;;13.15;;
64678;SDS011;51094;53.864;27.676;2023-02-23T05:56:58;16.55;;;15.88;;
64678;SDS011;51094;53.864;27.676;2023-02-23T05:59:27;17.23;;;16.42;;
64678;SDS011;51094;53.864;27.676;2023-02-23T06:01:54;18.42;;;17.63;;
64678;SDS011;51094;53.864;27.676;2023-02-23T06:04:20;20.63;;;19.58;;
64678;SDS011;51094;53.864;27.676;2023-02-23T06:06:48;21.77;;;20.77;;
64678;SDS011;51094;53.864;27.676;2023-02-23T06:09:15;22.80;;;21.80;;
64678;SDS011;51094;53.864;27.676;2023-02-23T06:11:42;19.73;;;18.83;;
64678;SDS011;51094;53.864;27.676;2023-02-23T06:14:10;20.35;;;19.45;;
64678;SDS011;51094;53.864;27.676;2023-02-23T06:16:37;20.95;;;20.13;;
64678;SDS011;51094;53.864;27.676;2023-02-23T06:19:04;19.45;;;18.65;;
64678;SDS011;51094;53.864;27.676;2023-02-23T06:21:31;20.10;;;19.20;;
64678;SDS011;51094;53.864;27.676;2023-02-23T06:23:59;17.98;;;17.27;;
64678;SDS011;51094;53.864;27.676;2023-02-23T06:26:26;27.23;;;25.92;;
64678;SDS011;51094;53.864;27.676;2023-02-23T06:28:53;26.38;;;25.27;;
64678;SDS011;51094;53.864;27.676;2023-02-23T06:31:21;28.30;;;27.05;;
64678;SDS011;51094;53.864;27.676;2023-02-23T06:33:48;28.73;;;27.42;;
64678;SDS011;51094;53.864;27.676;2023-02-23T06:36:16;27.17;;;25.98;;
64678;SDS011;51094;53.864;27.676;2023-02-23T06:38:43;25.55;;;24.45;;
64678;SDS011;51094;53.864;27.676;2023-02-23T06:41:10;14.63;;;14.13;;
64678;SDS011;51094;53.864;27.676;2023-02-23T06:43:38;13.63;;;13.13;;
64678;SDS011;51094;53.864;27.676;2023-02-23T06:46:04;10.52;;;10.23;;
64678;SDS011;51094;53.864;27.676;2023-02-23T06:48:31;9.27;;;8.98;;
64678;SDS011;51094;53.864;27.676;2023-02-23T06:50:58;9.43;;;9.13;;
64678;SDS011;51094;53.864;27.676;2023-02-23T06:53:25;10.25;;;9.88;;
64678;SDS011;51094;53.864;27.676;2023-02-23T06:55:52;9.05;;;8.75;;
64678;SDS011;51094;53.864;27.676;2023-02-23T06:58:19;9.52;;;9.23;;
64678;SDS011;51094;53.864;27.676;2023-02-23T07:00:46;9.38;;;9.07;;
64678;SDS011;51094;53.864;27.676;2023-02-23T07:03:13;9.63;;;9.32;;
64678;SDS011;51094;53.864;27.676;2023-02-23T07:05:40;9.77;;;9.48;;
64678;SDS011;51094;53.864;27.676;2023-02-23T07:08:07;8.90;;;8.60;;
64678;SDS011;51094;53.864;27.676;2023-02-23T07:10:34;7.55;;;7.35;;
64678;SDS011;51094;53.864;27.676;2023-02-23T07:13:01;7.50;;;7.30;;
64678;SDS011;51094;53.864;27.676;2023-02-23T07:15:28;7.88;;;7.68;;
64678;SDS011;51094;53.864;27.676;2023-02-23T07:17:55;7.40;;;7.20;;
64678;SDS011;51094;53.864;27.676;2023-02-23T07:20:22;7.75;;;7.55;;
64678;SDS011;51094;53.864;27.676;2023-02-23T07:22:49;7.75;;;7.55;;
64678;SDS011;51094;53.864;27.676;2023-02-23T07:25:16;7.22;;;7.03;;
64678;SDS011;51094;53.864;27.676;2023-02-23T07:27:43;7.45;;;7.25;;
64678;SDS011;51094;53.864;27.676;2023-02-23T07:30:11;6.78;;;6.57;;
64678;SDS011;51094;53.864;27.676;2023-02-23T07:32:38;7.35;;;7.15;;
64678;SDS011;51094;53.864;27.676;2023-02-23T07:35:06;6.65;;;6.45;;
64678;SDS011;51094;53.864;27.676;2023-02-23T07:37:33;7.13;;;6.93;;
64678;SDS011;51094;53.864;27.676;2023-02-23T07:40:00;6.80;;;6.60;;
64678;SDS011;51094;53.864;27.676;2023-02-23T07:42:27;6.32;;;6.13;;
64678;SDS011;51094;53.864;27.676;2023-02-23T07:44:54;6.30;;;6.10;;
64678;SDS011;51094;53.864;27.676;2023-02-23T07:47:21;5.85;;;5.65;;
64678;SDS011;51094;53.864;27.676;2023-02-23T07:49:56;5.78;;;5.68;;
64678;SDS011;51094;53.864;27.676;2023-02-23T07:52:23;7.43;;;7.22;;
64678;SDS011;51094;53.864;27.676;2023-02-23T07:54:51;6.18;;;5.97;;
64678;SDS011;51094;53.864;27.676;2023-02-23T07:57:18;6.85;;;6.65;;
64678;SDS011;51094;53.864;27.676;2023-02-23T07:59:48;6.10;;;5.90;;
64678;SDS011;51094;53.864;27.676;2023-02-23T08:02:15;5.85;;;5.65;;
64678;SDS011;51094;53.864;27.676;2023-02-23T08:04:42;5.57;;;5.38;;
64678;SDS011;51094;53.864;27.676;2023-02-23T08:07:09;5.82;;;5.63;;
64678;SDS011;51094;53.864;27.676;2023-02-23T08:09:36;6.00;;;5.80;;
64678;SDS011;51094;53.864;27.676;2023-02-23T08:12:03;5.50;;;5.30;;
64678;SDS011;51094;53.864;27.676;2023-02-23T08:14:31;5.65;;;5.45;;
64678;SDS011;51094;53.864;27.676;2023-02-23T08:16:58;5.20;;;5.10;;
64678;SDS011;51094;53.864;27.676;2023-02-23T08:19:27;4.97;;;4.88;;
64678;SDS011;51094;53.864;27.676;2023-02-23T08:21:54;4.63;;;4.53;;
64678;SDS011;51094;53.864;27.676;2023-02-23T08:24:23;4.38;;;4.28;;
64678;SDS011;51094;53.864;27.676;2023-02-23T08:26:52;4.90;;;4.80;;
64678;SDS011;51094;53.864;27.676;2023-02-23T08:29:18;4.88;;;4.78;;
64678;SDS011;51094;53.864;27.676;2023-02-23T08:31:46;5.13;;;5.03;;
64678;SDS011;51094;53.864;27.676;2023-02-23T08:34:14;5.85;;;5.65;;
64678;SDS011;51094;53.864;27.676;2023-02-23T08:36:41;5.65;;;5.47;;
64678;SDS011;51094;53.864;27.676;2023-02-23T08:39:12;5.30;;;5.10;;
64678;SDS011;51094;53.864;27.676;2023-02-23T08:41:39;5.47;;;5.28;;
64678;SDS011;51094;53.864;27.676;2023-02-23T08:44:06;5.55;;;5.35;;
64678;SDS011;51094;53.864;27.676;2023-02-23T08:46:33;5.30;;;5.10;;
64678;SDS011;51094;53.864;27.676;2023-02-23T08:49:00;4.85;;;4.65;;
64678;SDS011;51094;53.864;27.676;2023-02-23T08:51:27;5.18;;;5.07;;
64678;SDS011;51094;53.864;27.676;2023-02-23T08:53:53;4.57;;;4.40;;
64678;SDS011;51094;53.864;27.676;2023-02-23T08:56:22;4.05;;;3.95;;
64678;SDS011;51094;53.864;27.676;2023-02-23T08:58:50;4.00;;;3.90;;
64678;SDS011;51094;53.864;27.676;2023-02-23T09:01:19;4.10;;;4.00;;
64678;SDS011;51094;53.864;27.676;2023-02-23T09:03:47;4.10;;;4.00;;
64678;SDS011;51094;53.864;27.676;2023-02-23T09:06:16;6.00;;;5.80;;
64678;SDS011;51094;53.864;27.676;2023-02-23T09:08:44;5.03;;;4.88;;
64678;SDS011;51094;53.864;27.676;2023-02-23T09:11:11;4.50;;;4.30;;
64678;SDS011;51094;53.864;27.676;2023-02-23T09:13:38;3.90;;;3.80;;
64678;SDS011;51094;53.864;27.676;2023-02-23T09:16:05;4.15;;;4.05;;
64678;SDS011;51094;53.864;27.676;2023-02-23T09:18:33;4.15;;;4.05;;
64678;SDS011;51094;53.864;27.676;2023-02-23T09:21:03;4.18;;;4.07;;
64678;SDS011;51094;53.864;27.676;2023-02-23T09:23:36;4.78;;;4.57;;
64678;SDS011;51094;53.864;27.676;2023-02-23T09:26:06;4.82;;;4.72;;
64678;SDS011;51094;53.864;27.676;2023-02-23T09:28:34;4.70;;;4.57;;
64678;SDS011;51094;53.864;27.676;2023-02-23T09:31:08;4.60;;;4.50;;
64678;SDS011;51094;53.864;27.676;2023-02-23T09:33:37;4.72;;;4.53;;
64678;SDS011;51094;53.864;27.676;2023-02-23T09:36:06;4.35;;;4.15;;
64678;SDS011;51094;53.864;27.676;2023-02-23T09:38:38;4.72;;;4.43;;
64678;SDS011;51094;53.864;27.676;2023-02-23T09:41:08;4.13;;;4.03;;
64678;SDS011;51094;53.864;27.676;2023-02-23T09:44:11;4.18;;;3.97;;
64678;SDS011;51094;53.864;27.676;2023-02-23T09:46:47;4.45;;;4.32;;
64678;SDS011;51094;53.864;27.676;2023-02-23T09:49:19;3.85;;;3.75;;
64678;SDS011;51094;53.864;27.676;2023-02-23T09:51:50;4.10;;;4.00;;
64678;SDS011;51094;53.864;27.676;2023-02-23T09:54:23;4.00;;;3.90;;
64678;SDS011;51094;53.864;27.676;2023-02-23T09:56:55;4.82;;;4.60;;
64678;SDS011;51094;53.864;27.676;2023-02-23T09:59:23;4.38;;;4.18;;
64678;SDS011;51094;53.864;27.676;2023-02-23T10:18:21;3.92;;;3.83;;
64678;SDS011;51094;53.864;27.676;2023-02-23T10:23:47;4.00;;;3.90;;
64678;SDS011;51094;53.864;27.676;2023-02-23T10:26:40;4.25;;;4.15;;
64678;SDS011;51094;53.864;27.676;2023-02-23T10:29:24;3.75;;;3.65;;
64678;SDS011;51094;53.864;27.676;2023-02-23T10:31:56;3.80;;;3.70;;
64678;SDS011;51094;53.864;27.676;2023-02-23T10:34:26;3.50;;;3.40;;
64678;SDS011;51094;53.864;27.676;2023-02-23T10:39:25;3.97;;;3.88;;
64678;SDS011;51094;53.864;27.676;2023-02-23T10:41:53;3.60;;;3.50;;
64678;SDS011;51094;53.864;27.676;2023-02-23T10:44:26;3.72;;;3.63;;
64678;SDS011;51094;53.864;27.676;2023-02-23T10:47:01;3.72;;;3.63;;
64678;SDS011;51094;53.864;27.676;2023-02-23T10:49:37;3.45;;;3.35;;
64678;SDS011;51094;53.864;27.676;2023-02-23T10:52:19;4.05;;;3.90;;
64678;SDS011;51094;53.864;27.676;2023-02-23T10:54:50;3.95;;;3.85;;
64678;SDS011;51094;53.864;27.676;2023-02-23T10:57:22;4.20;;;4.00;;
64678;SDS011;51094;53.864;27.676;2023-02-23T11:02:46;3.88;;;3.78;;
64678;SDS011;51094;53.864;27.676;2023-02-23T11:05:27;3.67;;;3.58;;
64678;SDS011;51094;53.864;27.676;2023-02-23T11:11:03;3.80;;;3.70;;
64678;SDS011;51094;53.864;27.676;2023-02-23T11:13:41;4.15;;;4.05;;
64678;SDS011;51094;53.864;27.676;2023-02-23T11:16:13;3.80;;;3.70;;
64678;SDS011;51094;53.864;27.676;2023-02-23T11:18:52;3.70;;;3.60;;
64678;SDS011;51094;53.864;27.676;2023-02-23T11:21:22;3.95;;;3.88;;
64678;SDS011;51094;53.864;27.676;2023-02-23T11:23:52;3.80;;;3.70;;
64678;SDS011;51094;53.864;27.676;2023-02-23T11:28:55;3.75;;;3.65;;
64678;SDS011;51094;53.864;27.676;2023-02-23T11:31:29;3.70;;;3.60;;
64678;SDS011;51094;53.864;27.676;2023-02-23T11:34:01;3.50;;;3.40;;
64678;SDS011;51094;53.864;27.676;2023-02-23T11:36:35;3.87;;;3.70;;
64678;SDS011;51094;53.864;27.676;2023-02-23T11:39:05;3.70;;;3.60;;
64678;SDS011;51094;53.864;27.676;2023-02-23T11:41:45;3.58;;;3.47;;
64678;SDS011;51094;53.864;27.676;2023-02-23T11:44:23;3.47;;;3.38;;
64678;SDS011;51094;53.864;27.676;2023-02-23T11:46:50;3.20;;;3.17;;
64678;SDS011;51094;53.864;27.676;2023-02-23T11:49:19;3.40;;;3.30;;
64678;SDS011;51094;53.864;27.676;2023-02-23T11:51:52;3.55;;;3.38;;
64678;SDS011;51094;53.864;27.676;2023-02-23T11:54:27;3.58;;;3.47;;
64678;SDS011;51094;53.864;27.676;2023-02-23T11:56:56;3.20;;;3.10;;
64678;SDS011;51094;53.864;27.676;2023-02-23T11:59:26;3.53;;;3.42;;
64678;SDS011;51094;53.864;27.676;2023-02-23T12:02:17;3.50;;;3.40;;
64678;SDS011;51094;53.864;27.676;2023-02-23T12:05:06;3.45;;;3.35;;
64678;SDS011;51094;53.864;27.676;2023-02-23T12:07:38;3.80;;;3.70;;
64678;SDS011;51094;53.864;27.676;2023-02-23T12:10:18;3.47;;;3.38;;
64678;SDS011;51094;53.864;27.676;2023-02-23T12:12:51;3.40;;;3.40;;
64678;SDS011;51094;53.864;27.676;2023-02-23T12:15:25;3.47;;;3.38;;
64678;SDS011;51094;53.864;27.676;2023-02-23T12:18:00;3.45;;;3.42;;
64678;SDS011;51094;53.864;27.676;2023-02-23T12:20:36;3.30;;;3.20;;
64678;SDS011;51094;53.864;27.676;2023-02-23T12:23:09;3.60;;;3.50;;
64678;SDS011;51094;53.864;27.676;2023-02-23T12:25:54;3.50;;;3.40;;
64678;SDS011;51094;53.864;27.676;2023-02-23T12:34:10;3.30;;;3.30;;
64678;SDS011;51094;53.864;27.676;2023-02-23T12:36:44;3.83;;;3.72;;
64678;SDS011;51094;53.864;27.676;2023-02-23T12:48:05;3.75;;;3.65;;
64678;SDS011;51094;53.864;27.676;2023-02-23T12:53:08;4.07;;;3.88;;
64678;SDS011;51094;53.864;27.676;2023-02-23T12:55:54;3.85;;;3.75;;
64678;SDS011;51094;53.864;27.676;2023-02-23T12:58:24;4.10;;;4.00;;
64678;SDS011;51094;53.864;27.676;2023-02-23T13:01:16;4.28;;;4.18;;
64678;SDS011;51094;53.864;27.676;2023-02-23T13:04:04;3.88;;;3.78;;
64678;SDS011;51094;53.864;27.676;2023-02-23T13:09:54;3.97;;;3.88;;
64678;SDS011;51094;53.864;27.676;2023-02-23T13:17:49;3.72;;;3.63;;
64678;SDS011;51094;53.864;27.676;2023-02-23T13:22:57;4.30;;;4.10;;
64678;SDS011;51094;53.864;27.676;2023-02-23T13:25:42;3.95;;;3.80;;
64678;SDS011;51094;53.864;27.676;2023-02-23T13:28:19;3.50;;;3.40;;
64678;SDS011;51094;53.864;27.676;2023-02-23T13:30:53;3.72;;;3.63;;
64678;SDS011;51094;53.864;27.676;2023-02-23T13:33:24;3.60;;;3.50;;
64678;SDS011;51094;53.864;27.676;2023-02-23T13:36:08;3.38;;;3.28;;
64678;SDS011;51094;53.864;27.676;2023-02-23T13:38:43;3.58;;;3.45;;
64678;SDS011;51094;53.864;27.676;2023-02-23T13:44:39;3.47;;;3.38;;
64678;SDS011;51094;53.864;27.676;2023-02-23T13:47:16;3.40;;;3.30;;
64678;SDS011;51094;53.864;27.676;2023-02-23T13:52:47;3.30;;;3.20;;
64678;SDS011;51094;53.864;27.676;2023-02-23T13:58:04;3.80;;;3.70;;
64678;SDS011;51094;53.864;27.676;2023-02-23T14:00:36;3.25;;;3.20;;
64678;SDS011;51094;53.864;27.676;2023-02-23T14:03:03;3.65;;;3.50;;
64678;SDS011;51094;53.864;27.676;2023-02-23T14:05:40;3.13;;;3.03;;
64678;SDS011;51094;53.864;27.676;2023-02-23T14:08:17;3.90;;;3.80;;
64678;SDS011;51094;53.864;27.676;2023-02-23T14:11:01;3.17;;;3.08;;
64678;SDS011;51094;53.864;27.676;2023-02-23T14:13:31;3.35;;;3.25;;
64678;SDS011;51094;53.864;27.676;2023-02-23T14:16:07;4.00;;;3.80;;
64678;SDS011;51094;53.864;27.676;2023-02-23T14:21:27;3.50;;;3.40;;
64678;SDS011;51094;53.864;27.676;2023-02-23T14:24:17;3.25;;;3.15;;
64678;SDS011;51094;53.864;27.676;2023-02-23T14:29:37;3.30;;;3.20;;
64678;SDS011;51094;53.864;27.676;2023-02-23T14:34:59;3.90;;;3.80;;
64678;SDS011;51094;53.864;27.676;2023-02-23T14:37:32;3.47;;;3.38;;
64678;SDS011;51094;53.864;27.676;2023-02-23T14:42:40;4.10;;;3.90;;
64678;SDS011;51094;53.864;27.676;2023-02-23T14:47:53;3.55;;;3.45;;
64678;SDS011;51094;53.864;27.676;2023-02-23T14:50:42;3.45;;;3.35;;
64678;SDS011;51094;53.864;27.676;2023-02-23T14:53:18;3.20;;;3.10;;
64678;SDS011;51094;53.864;27.676;2023-02-23T14:55:49;3.50;;;3.40;;
64678;SDS011;51094;53.864;27.676;2023-02-23T14:58:25;3.88;;;3.70;;
64678;SDS011;51094;53.864;27.676;2023-02-23T15:00:54;3.95;;;3.85;;
64678;SDS011;51094;53.864;27.676;2023-02-23T15:03:21;3.53;;;3.42;;
64678;SDS011;51094;53.864;27.676;2023-02-23T15:06:00;3.35;;;3.25;;
64678;SDS011;51094;53.864;27.676;2023-02-23T15:08:27;3.47;;;3.38;;
64678;SDS011;51094;53.864;27.676;2023-02-23T15:11:00;3.90;;;3.80;;
64678;SDS011;51094;53.864;27.676;2023-02-23T15:13:35;3.75;;;3.65;;
64678;SDS011;51094;53.864;27.676;2023-02-23T15:16:06;3.40;;;3.30;;
64678;SDS011;51094;53.864;27.676;2023-02-23T15:18:39;3.33;;;3.30;;
64678;SDS011;51094;53.864;27.676;2023-02-23T15:21:18;3.45;;;3.35;;
64678;SDS011;51094;53.864;27.676;2023-02-23T15:23:57;2.92;;;2.83;;
64678;SDS011;51094;53.864;27.676;2023-02-23T15:26:34;3.17;;;3.08;;
64678;SDS011;51094;53.864;27.676;2023-02-23T15:31:39;3.47;;;3.38;;
64678;SDS011;51094;53.864;27.676;2023-02-23T15:34:16;3.50;;;3.40;;
64678;SDS011;51094;53.864;27.676;2023-02-23T15:36:46;3.30;;;3.20;;
64678;SDS011;51094;53.864;27.676;2023-02-23T15:39:31;3.40;;;3.30;;
64678;SDS011;51094;53.864;27.676;2023-02-23T15:42:04;2.88;;;2.88;;
64678;SDS011;51094;53.864;27.676;2023-02-23T15:44:38;3.65;;;3.55;;
64678;SDS011;51094;53.864;27.676;2023-02-23T15:47:20;3.60;;;3.50;;
64678;SDS011;51094;53.864;27.676;2023-02-23T15:50:04;3.40;;;3.30;;
64678;SDS011;51094;53.864;27.676;2023-02-23T15:52:47;3.33;;;3.22;;
64678;SDS011;51094;53.864;27.676;2023-02-23T15:55:19;2.88;;;2.78;;
64678;SDS011;51094;53.864;27.676;2023-02-23T15:57:55;3.00;;;2.90;;
64678;SDS011;51094;53.864;27.676;2023-02-23T16:03:04;3.50;;;3.40;;
64678;SDS011;51094;53.864;27.676;2023-02-23T16:05:34;3.00;;;2.90;;
64678;SDS011;51094;53.864;27.676;2023-02-23T16:08:17;3.38;;;3.28;;
64678;SDS011;51094;53.864;27.676;2023-02-23T16:10:49;3.50;;;3.40;;
64678;SDS011;51094;53.864;27.676;2023-02-23T16:13:22;3.22;;;3.13;;
64678;SDS011;51094;53.864;27.676;2023-02-23T16:15:52;3.38;;;3.28;;
64678;SDS011;51094;53.864;27.676;2023-02-23T16:18:31;3.13;;;3.03;;
64678;SDS011;51094;53.864;27.676;2023-02-23T16:21:03;3.30;;;3.20;;
64678;SDS011;51094;53.864;27.676;2023-02-23T16:23:33;3.00;;;3.00;;
64678;SDS011;51094;53.864;27.676;2023-02-23T16:26:16;3.20;;;3.10;;
64678;SDS011;51094;53.864;27.676;2023-02-23T16:28:58;3.10;;;3.00;;
64678;SDS011;51094;53.864;27.676;2023-02-23T16:31:41;3.20;;;3.10;;
64678;SDS011;51094;53.864;27.676;2023-02-23T16:34:20;3.08;;;2.97;;
64678;SDS011;51094;53.864;27.676;2023-02-23T16:36:55;3.10;;;3.00;;
64678;SDS011;51094;53.864;27.676;2023-02-23T16:39:24;2.95;;;2.90;;
64678;SDS011;51094;53.864;27.676;2023-02-23T16:41:57;2.80;;;2.80;;
64678;SDS011;51094;53.864;27.676;2023-02-23T16:44:26;3.53;;;3.42;;
64678;SDS011;51094;53.864;27.676;2023-02-23T16:47:09;3.30;;;3.20;;
64678;SDS011;51094;53.864;27.676;2023-02-23T16:49:38;3.53;;;3.42;;
64678;SDS011;51094;53.864;27.676;2023-02-23T16:52:21;3.00;;;3.00;;
64678;SDS011;51094;53.864;27.676;2023-02-23T16:54:49;3.38;;;3.28;;
64678;SDS011;51094;53.864;27.676;2023-02-23T16:57:23;3.17;;;3.08;;
64678;SDS011;51094;53.864;27.676;2023-02-23T16:59:52;3.00;;;2.90;;
64678;SDS011;51094;53.864;27.676;2023-02-23T17:02:20;3.22;;;3.15;;
64678;SDS011;51094;53.864;27.676;2023-02-23T17:04:50;2.90;;;2.90;;
64678;SDS011;51094;53.864;27.676;2023-02-23T17:07:19;2.90;;;2.80;;